FSIA/SEZ METAR and TAF weather

Enter ICAO airport designator
Station Type Date Time Source
FSIA METAR 2021/09/27 08:00 UTC NOAA

FSIA 270800Z 35005KT 9999 FEW022 28/23 Q1010 NOSIG


Station Type Date Time Source
FSIA Decoded METAR 2021/09/27 08:00 UTC NOAA

Seychelles Inter-National Airport, Seychelles (FSIA) 04-40S 055-31E 3M
Sep 27, 2021 - 04:00 AM EDT / 2021.09.27 0800 UTC
Wind: from the N (350 degrees) at 6 MPH (5 KT):0
Visibility: greater than 7 mile(s):0
Sky conditions: mostly clear
Temperature: 82 F (28 C)
Dew Point: 73 F (23 C)
Relative Humidity: 74%
Pressure (altimeter): 29.83 in. Hg (1010 hPa)
ob: FSIA 270800Z 35005KT 9999 FEW022 28/23 Q1010 NOSIG
cycle: 8

Station Type Date Time Source
FSIA TAF 2021/09/27 06:12 UTC NOAA

TAF TAF FSIA 270500Z 2706/2806 32006KT 9999 FEW022

Example: see airport list